Abbeville, Louisiana
Current Conditions -  °F | °C
As of 7:35 PM on Thursday 27 Nov 2014 (Local Time) from KIYA Reporting Station
Clear Clear  
Wind Chill:   Ceiling: Unl
Heat Index:   Visibility: 10mi
Dew Point:   Wind: 5mph
Humidity: 55%   Direction: 10°N
Pressure: 30.45"   Gusts: NA
Location:  29.97°N, 92.13°W
Report Text: KIYA 280135Z AUTO 01004KT 10SM CLR 09/00 A3045 RMK AO2 T00861001
Loading
Personal Weather Stations






























Interactive Weather Map New forecast layout! Learn more

10-Day Weather Forecast

Advertisements
Track Severe Weather on mobile